createdAt,value
2022-12-12T00:01:26.452Z,30.80
2022-12-12T00:03:56.237Z,32.92
2022-12-12T00:06:25.316Z,33.35
2022-12-12T00:08:53.673Z,34.60
2022-12-12T00:11:22.109Z,27.02
2022-12-12T00:13:50.308Z,36.55
2022-12-12T00:16:18.843Z,31.58
2022-12-12T00:18:47.295Z,33.58
2022-12-12T00:21:19.157Z,30.88
2022-12-12T00:23:47.464Z,25.50
2022-12-12T00:26:19.533Z,30.48
2022-12-12T00:28:48.405Z,35.33
2022-12-12T00:31:17.358Z,36.10
2022-12-12T00:33:48.043Z,33.83
2022-12-12T00:36:18.777Z,44.72
2022-12-12T00:38:47.291Z,39.22
2022-12-12T00:41:15.891Z,35.90
2022-12-12T00:43:44.509Z,34.55
2022-12-12T00:46:15.169Z,30.92
2022-12-12T00:48:43.549Z,32.28
2022-12-12T00:51:14.576Z,34.25
2022-12-12T00:53:44.198Z,37.88
2022-12-12T00:56:12.439Z,35.05
2022-12-12T00:58:40.762Z,31.65
2022-12-12T01:01:16.310Z,47.80
2022-12-12T01:03:45.027Z,44.25
2022-12-12T01:06:13.852Z,42.50
2022-12-12T01:08:43.789Z,33.45
2022-12-12T01:11:14.404Z,33.42
2022-12-12T01:13:43.408Z,36.22
2022-12-12T01:16:12.961Z,35.35
2022-12-12T01:18:42.548Z,33.40
2022-12-12T01:21:11.617Z,34.95
2022-12-12T01:23:39.988Z,33.10
2022-12-12T01:26:12.341Z,29.52
2022-12-12T01:28:40.984Z,25.10
2022-12-12T01:31:09.507Z,28.45
2022-12-12T01:33:38.057Z,32.00
2022-12-12T01:36:07.621Z,30.88
2022-12-12T01:38:35.825Z,33.53
2022-12-12T01:41:04.016Z,29.20
2022-12-12T01:43:33.640Z,29.02
2022-12-12T01:46:33.267Z,26.50
2022-12-12T01:49:05.846Z,21.50
2022-12-12T01:51:34.703Z,23.80
2022-12-12T01:54:07.102Z,25.13
2022-12-12T01:56:36.434Z,22.00
2022-12-12T01:59:08.102Z,24.95
2022-12-12T02:01:37.327Z,22.17
2022-12-12T02:04:06.615Z,23.65
2022-12-12T02:06:34.826Z,21.77
2022-12-12T02:09:05.770Z,24.17
2022-12-12T02:11:38.845Z,24.38
2022-12-12T02:14:08.604Z,25.83
2022-12-12T02:16:55.485Z,26.15
2022-12-12T02:19:57.967Z,23.45
2022-12-12T02:22:44.564Z,23.95
2022-12-12T02:25:43.538Z,22.88
2022-12-12T02:28:38.615Z,22.27
2022-12-12T02:31:16.714Z,25.30
2022-12-12T02:33:54.936Z,23.25
2022-12-12T02:36:33.315Z,21.17
2022-12-12T02:39:08.193Z,25.35
2022-12-12T02:41:42.212Z,20.63
2022-12-12T02:44:19.583Z,26.40
2022-12-12T02:46:56.924Z,21.30
2022-12-12T02:49:29.942Z,19.52
2022-12-12T02:52:00.462Z,24.63
2022-12-12T02:54:28.747Z,19.70
2022-12-12T02:56:58.741Z,26.73
2022-12-12T02:59:31.322Z,24.08
2022-12-12T03:02:32.613Z,20.85
2022-12-12T03:05:31.705Z,21.90
2022-12-12T03:08:12.654Z,19.35
2022-12-12T03:10:52.006Z,24.38
2022-12-12T03:13:31.437Z,22.55
2022-12-12T03:16:11.249Z,23.27
2022-12-12T03:18:46.269Z,20.15
2022-12-12T03:21:19.057Z,24.42
2022-12-12T03:23:52.509Z,24.13
2022-12-12T03:26:27.474Z,22.02
2022-12-12T03:29:02.745Z,21.05
2022-12-12T03:31:35.553Z,20.63
2022-12-12T03:34:09.188Z,27.23
2022-12-12T03:36:43.413Z,27.67
2022-12-12T03:39:16.731Z,22.65
2022-12-12T03:41:52.601Z,22.58
2022-12-12T03:44:25.733Z,21.20
2022-12-12T03:46:58.231Z,23.17
2022-12-12T03:49:31.660Z,27.65
2022-12-12T03:52:04.380Z,23.13
2022-12-12T03:54:38.629Z,23.60
2022-12-12T03:57:13.088Z,23.50
2022-12-12T03:59:45.763Z,20.48
2022-12-12T04:02:17.981Z,26.58
2022-12-12T04:04:56.574Z,20.40
2022-12-12T04:07:27.275Z,21.73
2022-12-12T04:10:13.089Z,27.08
2022-12-12T04:12:59.624Z,20.48
2022-12-12T04:15:47.352Z,25.25
2022-12-12T04:18:21.869Z,20.45
2022-12-12T04:21:21.671Z,22.65
2022-12-12T04:24:00.925Z,22.05
2022-12-12T04:26:40.986Z,19.13
2022-12-12T04:29:27.286Z,22.50
2022-12-12T04:32:01.406Z,20.58
2022-12-12T04:34:38.161Z,23.15
2022-12-12T04:37:10.344Z,18.08
2022-12-12T04:39:40.939Z,20.52
2022-12-12T04:42:13.093Z,20.63
2022-12-12T04:44:42.994Z,22.92
2022-12-12T04:47:13.105Z,15.68
2022-12-12T04:49:44.520Z,18.15
2022-12-12T04:52:16.905Z,17.52
2022-12-12T04:54:51.897Z,18.50
2022-12-12T04:57:25.409Z,19.48
2022-12-12T04:59:53.704Z,20.02
2022-12-12T05:02:28.632Z,16.63
2022-12-12T05:05:01.002Z,16.30
2022-12-12T05:07:39.982Z,17.52
2022-12-12T05:10:13.433Z,16.38
2022-12-12T05:12:44.376Z,17.05
2022-12-12T05:15:13.184Z,16.52
2022-12-12T05:17:45.021Z,14.82
2022-12-12T05:20:13.801Z,14.77
2022-12-12T05:22:43.445Z,20.67
2022-12-12T05:25:13.321Z,19.08
2022-12-12T05:27:41.889Z,16.58
2022-12-12T05:30:11.321Z,16.38
2022-12-12T05:32:39.543Z,13.18
2022-12-12T05:35:09.725Z,15.30
2022-12-12T05:37:38.480Z,17.20
2022-12-12T05:40:10.681Z,15.77
2022-12-12T05:42:38.881Z,23.50
2022-12-12T05:45:08.209Z,16.88
2022-12-12T05:47:36.412Z,19.15
2022-12-12T05:50:05.097Z,15.82
2022-12-12T05:52:33.273Z,16.98
2022-12-12T05:55:01.660Z,15.57
2022-12-12T05:57:34.349Z,22.75
2022-12-12T06:00:02.621Z,17.65
2022-12-12T06:02:30.904Z,25.08
2022-12-12T06:04:59.173Z,19.33
2022-12-12T06:07:27.470Z,14.38
2022-12-12T06:09:56.060Z,19.60
2022-12-12T06:12:24.337Z,15.77
2022-12-12T06:14:53.968Z,12.63
2022-12-12T06:17:22.261Z,19.25
2022-12-12T06:19:50.466Z,19.23
2022-12-12T06:22:18.706Z,19.50
2022-12-12T06:24:46.940Z,21.27
2022-12-12T06:27:15.275Z,19.05
2022-12-12T06:29:43.660Z,19.15
2022-12-12T06:32:13.349Z,19.88
2022-12-12T06:34:41.640Z,19.65
2022-12-12T06:37:16.907Z,17.65
2022-12-12T06:39:45.533Z,18.92
2022-12-12T06:42:13.826Z,18.52
2022-12-12T06:44:42.053Z,22.38
2022-12-12T06:47:10.253Z,18.08
2022-12-12T06:49:40.091Z,14.68
2022-12-12T06:52:08.339Z,16.67
2022-12-12T06:54:37.730Z,16.60
2022-12-12T06:57:06.056Z,19.02
2022-12-12T06:59:34.305Z,19.60
2022-12-12T07:02:02.704Z,21.80
2022-12-12T07:04:31.018Z,17.15
2022-12-12T07:07:00.622Z,16.77
2022-12-12T07:09:29.719Z,16.23
2022-12-12T07:11:57.961Z,30.63
2022-12-12T07:14:26.202Z,16.65
2022-12-12T07:16:54.441Z,22.20
2022-12-12T07:19:23.824Z,16.63
2022-12-12T07:21:52.033Z,21.35
2022-12-12T07:24:21.649Z,22.27
2022-12-12T07:26:49.889Z,28.20
2022-12-12T07:29:18.114Z,26.33
2022-12-12T07:31:46.518Z,20.48
2022-12-12T07:34:14.785Z,23.92
2022-12-12T07:36:43.068Z,16.25
2022-12-12T07:39:14.598Z,18.33
2022-12-12T07:41:47.534Z,18.55
2022-12-12T07:44:17.269Z,17.13
2022-12-12T07:46:45.548Z,16.23
2022-12-12T07:49:13.811Z,30.65
2022-12-12T07:51:48.625Z,19.67
2022-12-12T07:54:17.345Z,17.65
2022-12-12T07:56:47.029Z,17.60
2022-12-12T07:59:15.253Z,21.50
2022-12-12T08:01:43.557Z,20.25
2022-12-12T08:04:11.813Z,18.52
2022-12-12T08:06:40.055Z,23.58
2022-12-12T08:09:09.129Z,24.65
2022-12-12T08:11:40.740Z,17.27
2022-12-12T08:14:15.692Z,19.95
2022-12-12T08:16:44.125Z,16.60
2022-12-12T08:19:13.188Z,16.13
2022-12-12T08:21:41.369Z,15.32
2022-12-12T08:24:12.381Z,16.90
2022-12-12T08:26:41.130Z,21.83
2022-12-12T08:29:09.900Z,19.25
2022-12-12T08:31:39.617Z,16.10
2022-12-12T08:34:08.230Z,18.05
2022-12-12T08:36:37.179Z,16.80
2022-12-12T08:39:08.729Z,17.55
2022-12-12T08:41:39.556Z,14.32
2022-12-12T08:44:08.178Z,14.50
2022-12-12T08:46:36.503Z,16.42
2022-12-12T08:49:06.337Z,16.80
2022-12-12T08:51:35.545Z,16.02
2022-12-12T08:54:03.732Z,17.63
2022-12-12T08:56:31.948Z,17.40
2022-12-12T08:59:00.365Z,14.10
2022-12-12T09:01:29.234Z,20.02
2022-12-12T09:03:58.313Z,23.38
2022-12-12T09:06:28.424Z,19.10
2022-12-12T09:08:57.651Z,16.20
2022-12-12T09:11:26.037Z,17.05
2022-12-12T09:13:54.241Z,14.18
2022-12-12T09:16:23.482Z,23.08
2022-12-12T09:18:51.758Z,15.50
2022-12-12T09:21:20.101Z,15.27
2022-12-12T09:23:50.196Z,20.92
2022-12-12T09:26:22.296Z,16.75
2022-12-12T09:28:50.505Z,16.35
2022-12-12T09:31:18.822Z,15.73
2022-12-12T09:33:47.200Z,15.65
2022-12-12T09:36:16.693Z,13.18
2022-12-12T09:38:45.334Z,20.40
2022-12-12T09:41:17.338Z,15.80
2022-12-12T09:43:55.586Z,15.32
2022-12-12T09:46:31.269Z,17.42
2022-12-12T09:49:08.433Z,17.48
2022-12-12T09:51:37.620Z,16.58
2022-12-12T09:54:06.862Z,14.23
2022-12-12T09:56:44.280Z,20.60
2022-12-12T09:59:17.908Z,16.33
2022-12-12T10:01:56.350Z,18.42
2022-12-12T10:04:36.404Z,17.08
2022-12-12T10:07:11.912Z,22.50
2022-12-12T10:09:50.037Z,27.77
2022-12-12T10:12:22.160Z,24.42
2022-12-12T10:14:53.873Z,16.63
2022-12-12T10:17:30.666Z,15.00
2022-12-12T10:20:01.649Z,22.27
2022-12-12T10:22:38.304Z,27.20
2022-12-12T10:25:20.137Z,19.02
2022-12-12T10:27:52.305Z,24.75
2022-12-12T10:30:22.244Z,22.63
2022-12-12T10:33:14.392Z,21.35
2022-12-12T10:35:54.412Z,20.55
2022-12-12T10:38:35.974Z,26.33
2022-12-12T10:41:13.066Z,29.40
2022-12-12T10:43:50.630Z,27.95
2022-12-12T10:46:26.519Z,21.77
2022-12-12T10:48:55.745Z,33.30
2022-12-12T10:51:27.563Z,31.50
2022-12-12T10:53:55.789Z,32.25
2022-12-12T10:56:26.269Z,25.90
2022-12-12T10:58:57.433Z,26.90
2022-12-12T11:01:52.785Z,27.02
2022-12-12T11:04:17.743Z,27.48
2022-12-12T11:06:49.797Z,21.20
2022-12-12T11:09:22.766Z,22.45
2022-12-12T11:12:02.151Z,25.45
2022-12-12T11:14:35.697Z,24.77
2022-12-12T11:17:04.609Z,28.02
2022-12-12T11:19:39.495Z,25.13
2022-12-12T11:22:07.993Z,28.25
2022-12-12T11:24:37.521Z,24.50
2022-12-12T11:27:08.124Z,23.05
2022-12-12T11:29:44.857Z,26.48
2022-12-12T11:32:15.664Z,24.88
2022-12-12T11:34:48.165Z,30.00
2022-12-12T11:37:17.988Z,25.55
2022-12-12T11:39:49.833Z,30.65
2022-12-12T11:42:25.687Z,30.75
2022-12-12T11:45:04.853Z,24.75
2022-12-12T11:47:41.013Z,29.58
2022-12-12T11:50:25.389Z,28.58
2022-12-12T11:52:58.522Z,28.55
2022-12-12T11:55:39.045Z,25.73
2022-12-12T11:58:18.134Z,22.05
2022-12-12T12:00:56.687Z,24.92
2022-12-12T12:03:30.391Z,24.08
2022-12-12T12:06:16.270Z,24.73
2022-12-12T12:09:10.148Z,25.30
2022-12-12T12:11:49.169Z,21.70
2022-12-12T12:14:42.001Z,22.33
2022-12-12T12:17:23.561Z,19.17
2022-12-12T12:20:00.232Z,17.77
2022-12-12T12:22:39.177Z,17.67
2022-12-12T12:25:20.861Z,18.70
2022-12-12T12:27:59.488Z,19.15
2022-12-12T12:30:34.180Z,20.85
2022-12-12T12:33:33.105Z,19.50
2022-12-12T12:36:10.621Z,17.25
2022-12-12T12:38:54.593Z,18.52
2022-12-12T12:41:58.965Z,17.70
2022-12-12T12:44:43.975Z,18.58
2022-12-12T12:47:24.356Z,17.30
2022-12-12T12:50:00.151Z,16.50
2022-12-12T12:52:33.620Z,24.58
2022-12-12T12:55:03.584Z,22.92
2022-12-12T12:57:34.750Z,19.67
2022-12-12T13:00:09.961Z,18.67
2022-12-12T13:02:47.211Z,16.33
2022-12-12T13:05:22.042Z,25.83
2022-12-12T13:07:56.166Z,17.25
2022-12-12T13:10:27.888Z,70.10
2022-12-12T13:13:00.790Z,18.08
2022-12-12T13:15:34.457Z,15.32
2022-12-12T13:18:05.421Z,14.82
2022-12-12T13:20:41.578Z,34.58
2022-12-12T13:23:38.017Z,85.90
2022-12-12T13:26:14.179Z,13.55
2022-12-12T13:28:50.265Z,14.70
2022-12-12T13:31:50.502Z,10.55
2022-12-12T13:34:23.629Z,16.88
2022-12-12T13:36:57.242Z,13.20
2022-12-12T13:39:29.975Z,11.80
2022-12-12T13:42:01.664Z,13.00
2022-12-12T13:44:41.628Z,16.02
2022-12-12T13:47:29.461Z,14.98
2022-12-12T13:50:00.590Z,21.80
2022-12-12T13:52:32.757Z,13.27
2022-12-12T13:55:24.638Z,16.95
2022-12-12T13:58:34.366Z,15.48
2022-12-12T14:01:31.936Z,12.32
2022-12-12T14:04:01.132Z,20.48
2022-12-12T14:06:30.877Z,20.75
2022-12-12T14:09:01.847Z,15.38
2022-12-12T14:11:37.035Z,15.90
2022-12-12T14:14:19.305Z,19.88
2022-12-12T14:16:54.498Z,18.83
2022-12-12T14:19:28.916Z,13.52
2022-12-12T14:21:57.553Z,16.30
2022-12-12T14:25:00.993Z,18.17
2022-12-12T14:28:05.762Z,16.08
2022-12-12T14:30:44.673Z,16.20
2022-12-12T14:33:50.101Z,19.92
2022-12-12T14:37:00.565Z,19.05
2022-12-12T14:39:56.469Z,20.15
2022-12-12T14:43:19.081Z,19.80
2022-12-12T14:45:38.528Z,15.25
2022-12-12T14:48:18.029Z,19.65
2022-12-12T14:50:50.817Z,20.15
2022-12-12T14:53:21.484Z,16.88
2022-12-12T14:55:52.952Z,18.77
2022-12-12T14:58:26.396Z,16.70
2022-12-12T15:00:56.781Z,17.30
2022-12-12T15:03:29.554Z,13.15
2022-12-12T15:06:27.688Z,12.48
2022-12-12T15:08:57.158Z,13.65
2022-12-12T15:11:27.144Z,12.55
2022-12-12T15:14:01.138Z,11.77
2022-12-12T15:16:42.753Z,10.60
2022-12-12T15:19:16.829Z,14.10
2022-12-12T15:21:45.628Z,9.77
2022-12-12T15:24:20.617Z,11.60
2022-12-12T15:26:50.679Z,9.70
2022-12-12T15:29:23.202Z,11.50
2022-12-12T15:32:00.950Z,11.00
2022-12-12T15:34:38.673Z,10.25
2022-12-12T15:37:28.018Z,10.00
2022-12-12T15:40:35.149Z,10.00
2022-12-12T15:43:06.520Z,8.02
2022-12-12T15:45:39.843Z,11.60
2022-12-12T15:48:15.579Z,10.88
2022-12-12T15:50:57.183Z,10.57
2022-12-12T15:53:27.417Z,11.18
2022-12-12T15:56:01.020Z,8.00
2022-12-12T15:58:38.460Z,11.90
2022-12-12T16:01:20.621Z,12.98
2022-12-12T16:03:58.321Z,11.68
2022-12-12T16:06:28.354Z,12.13
2022-12-12T16:09:03.713Z,9.50
2022-12-12T16:11:50.084Z,10.20
2022-12-12T16:14:39.471Z,10.20
2022-12-12T16:17:13.362Z,11.90
2022-12-12T16:19:44.648Z,9.82
2022-12-12T16:22:21.990Z,13.73
2022-12-12T16:25:02.009Z,12.93
2022-12-12T16:27:30.189Z,15.65
2022-12-12T16:29:58.404Z,9.38
2022-12-12T16:32:28.009Z,20.85
2022-12-12T16:34:56.241Z,17.80
2022-12-12T16:37:24.440Z,12.70
2022-12-12T16:39:52.709Z,37.53
2022-12-12T16:42:23.951Z,11.43
2022-12-12T16:44:58.088Z,12.27
2022-12-12T16:47:27.662Z,11.75
2022-12-12T16:49:55.837Z,15.15
2022-12-12T16:52:24.128Z,12.88
2022-12-12T16:54:53.923Z,12.68
2022-12-12T16:57:22.455Z,15.32
2022-12-12T16:59:50.722Z,9.98
2022-12-12T17:02:21.404Z,12.82
2022-12-12T17:04:53.485Z,14.93
2022-12-12T17:07:21.734Z,13.90
2022-12-12T17:09:52.866Z,10.90
2022-12-12T17:12:27.116Z,9.48
2022-12-12T17:14:55.286Z,12.10
2022-12-12T17:17:23.500Z,13.05
2022-12-12T17:19:53.060Z,11.30
2022-12-12T17:22:21.259Z,16.20
2022-12-12T17:24:49.461Z,13.45
2022-12-12T17:27:17.682Z,17.65
2022-12-12T17:29:45.865Z,14.30
2022-12-12T17:32:14.082Z,16.08
2022-12-12T17:34:42.759Z,15.77
2022-12-12T17:37:12.418Z,20.67
2022-12-12T17:39:40.820Z,20.80
2022-12-12T17:42:08.996Z,17.10
2022-12-12T17:44:37.225Z,20.50
2022-12-12T17:47:05.453Z,21.55
2022-12-12T17:49:33.711Z,16.17
2022-12-12T17:52:10.472Z,12.57
2022-12-12T17:54:40.198Z,12.73
2022-12-12T17:57:08.889Z,7.53
2022-12-12T17:59:37.421Z,12.18
2022-12-12T18:02:06.026Z,7.78
2022-12-12T18:04:37.843Z,8.35
2022-12-12T18:07:06.541Z,10.10
2022-12-12T18:09:35.534Z,11.73
2022-12-12T18:12:05.998Z,10.68
2022-12-12T18:14:40.027Z,12.65
2022-12-12T18:17:08.605Z,10.55
2022-12-12T18:19:37.013Z,11.07
2022-12-12T18:22:05.273Z,18.50
2022-12-12T18:24:33.474Z,16.52
2022-12-12T18:27:08.871Z,13.38
2022-12-12T18:29:37.060Z,12.65
2022-12-12T18:32:06.016Z,11.02
2022-12-12T18:34:34.394Z,13.73
2022-12-12T18:37:02.603Z,12.90
2022-12-12T18:39:33.698Z,12.40
2022-12-12T18:42:01.892Z,14.27
2022-12-12T18:44:31.571Z,10.18
2022-12-12T18:46:59.776Z,14.68
2022-12-12T18:49:27.981Z,12.85
2022-12-12T18:52:01.709Z,13.75
2022-12-12T18:54:29.948Z,13.95
2022-12-12T18:56:58.129Z,11.55
2022-12-12T18:59:26.332Z,14.57
2022-12-12T19:01:58.479Z,10.60
2022-12-12T19:04:26.659Z,14.35
2022-12-12T19:06:55.260Z,13.75
2022-12-12T19:09:23.883Z,19.98
2022-12-12T19:11:58.276Z,12.00
2022-12-12T19:14:45.862Z,11.13
2022-12-12T19:17:25.619Z,9.57
2022-12-12T19:19:54.980Z,12.00
2022-12-12T19:25:11.440Z,10.65
2022-12-12T19:27:39.696Z,9.82
2022-12-12T19:30:09.005Z,10.88
2022-12-12T19:32:47.521Z,10.13
2022-12-12T19:35:16.109Z,10.13
2022-12-12T19:37:44.310Z,8.43
2022-12-12T19:40:13.774Z,10.35
2022-12-12T19:42:48.185Z,10.95
2022-12-12T19:45:16.597Z,10.38
2022-12-12T19:47:46.205Z,9.50
2022-12-12T19:50:17.490Z,21.70
2022-12-12T19:52:45.781Z,8.57
2022-12-12T19:55:19.966Z,13.38
2022-12-12T19:57:48.201Z,12.90
2022-12-12T20:00:19.836Z,12.80
2022-12-12T20:02:49.498Z,19.58
2022-12-12T20:05:17.973Z,11.95
2022-12-12T20:07:46.206Z,13.50
2022-12-12T20:10:14.640Z,15.82
2022-12-12T20:12:54.504Z,15.10
2022-12-12T20:15:26.357Z,14.23
2022-12-12T20:18:00.035Z,16.23
2022-12-12T20:20:28.317Z,20.00
2022-12-12T20:22:59.017Z,17.27
2022-12-12T20:25:27.212Z,17.00
2022-12-12T20:27:55.413Z,17.02
2022-12-12T20:30:26.608Z,15.52
2022-12-12T20:32:59.073Z,15.85
2022-12-12T20:35:30.045Z,14.73
2022-12-12T20:37:58.259Z,13.70
2022-12-12T20:40:26.457Z,15.82
2022-12-12T20:43:03.137Z,20.50
2022-12-12T20:45:37.452Z,21.48
2022-12-12T20:48:07.898Z,15.30
2022-12-12T20:50:36.268Z,18.40
2022-12-12T20:53:07.521Z,20.50
2022-12-12T20:55:36.708Z,17.88
2022-12-12T20:58:04.984Z,15.18
2022-12-12T21:00:35.580Z,18.40
2022-12-12T21:03:03.886Z,23.23
2022-12-12T21:05:33.529Z,18.98
2022-12-12T21:08:02.020Z,16.20
2022-12-12T21:10:32.892Z,18.52
2022-12-12T21:13:01.084Z,19.50
2022-12-12T21:15:29.418Z,20.90
2022-12-12T21:18:00.420Z,22.83
2022-12-12T21:20:34.288Z,23.17
2022-12-12T21:23:03.865Z,21.70
2022-12-12T21:25:32.038Z,22.17
2022-12-12T21:28:00.556Z,22.67
2022-12-12T21:30:28.997Z,19.63
2022-12-12T21:32:57.220Z,18.98
2022-12-12T21:35:25.589Z,25.55
2022-12-12T21:37:53.798Z,24.67
2022-12-12T21:40:23.417Z,17.98
2022-12-12T21:42:51.598Z,21.30
2022-12-12T21:45:19.825Z,20.80
2022-12-12T21:47:48.161Z,18.75
2022-12-12T21:50:16.448Z,21.48
2022-12-12T21:53:05.269Z,22.60
2022-12-12T21:55:37.877Z,25.23
2022-12-12T21:58:06.067Z,20.33
2022-12-12T22:00:40.299Z,23.52
2022-12-12T22:03:08.774Z,20.90
2022-12-12T22:05:37.004Z,27.15
2022-12-12T22:08:05.360Z,26.15
2022-12-12T22:10:38.164Z,23.23
2022-12-12T22:13:06.432Z,30.73
2022-12-12T22:15:34.673Z,30.38
2022-12-12T22:18:02.874Z,26.10
2022-12-12T22:20:31.157Z,24.95
2022-12-12T22:22:59.333Z,26.90
2022-12-12T22:25:28.688Z,27.42
2022-12-12T22:27:58.289Z,27.25
2022-12-12T22:30:26.509Z,19.95
2022-12-12T22:32:54.685Z,29.17
2022-12-12T22:35:26.479Z,27.10
2022-12-12T22:37:55.092Z,24.73
2022-12-12T22:40:23.285Z,30.23
2022-12-12T22:42:51.469Z,30.75
2022-12-12T22:45:21.098Z,28.92
2022-12-12T22:47:49.362Z,24.65
2022-12-12T22:50:17.604Z,33.13
2022-12-12T22:52:45.816Z,28.80
2022-12-12T22:55:14.063Z,26.38
2022-12-12T22:57:42.374Z,28.15
2022-12-12T23:00:11.637Z,26.58
2022-12-12T23:02:41.253Z,29.50
2022-12-12T23:05:10.287Z,24.55
2022-12-12T23:07:38.703Z,27.92
2022-12-12T23:10:07.630Z,26.73
2022-12-12T23:12:35.843Z,24.67
2022-12-12T23:15:04.048Z,30.27
2022-12-12T23:17:32.213Z,29.25
2022-12-12T23:20:01.773Z,26.90
2022-12-12T23:22:29.969Z,29.20
2022-12-12T23:24:58.188Z,24.08
2022-12-12T23:27:26.401Z,25.10
2022-12-12T23:29:54.681Z,25.75
2022-12-12T23:32:22.917Z,22.65
2022-12-12T23:34:51.229Z,27.00
2022-12-12T23:37:20.823Z,29.63
2022-12-12T23:39:54.142Z,24.30
2022-12-12T23:42:22.317Z,27.80
2022-12-12T23:44:50.986Z,24.75
2022-12-12T23:47:19.270Z,20.30
2022-12-12T23:49:47.457Z,26.65
2022-12-12T23:52:15.629Z,21.92
2022-12-12T23:54:45.277Z,18.30
2022-12-12T23:57:13.477Z,23.15
2022-12-12T23:59:42.051Z,21.17
